sensor_id;sensor_type;location;lat;lon;timestamp;P1;durP1;ratioP1;P2;durP2;ratioP2
22359;SDS011;11347;52.030;4.690;2023-07-13T00:02:04;23.17;;;4.03;;
22359;SDS011;11347;52.030;4.690;2023-07-13T00:04:30;25.00;;;4.10;;
22359;SDS011;11347;52.030;4.690;2023-07-13T00:06:55;22.10;;;3.63;;
22359;SDS011;11347;52.030;4.690;2023-07-13T00:09:21;28.63;;;4.40;;
22359;SDS011;11347;52.030;4.690;2023-07-13T00:11:49;29.27;;;4.27;;
22359;SDS011;11347;52.030;4.690;2023-07-13T00:14:17;26.23;;;4.00;;
22359;SDS011;11347;52.030;4.690;2023-07-13T00:16:42;34.37;;;4.30;;
22359;SDS011;11347;52.030;4.690;2023-07-13T00:19:08;25.10;;;3.87;;
22359;SDS011;11347;52.030;4.690;2023-07-13T00:21:35;21.00;;;3.93;;
22359;SDS011;11347;52.030;4.690;2023-07-13T00:24:01;19.43;;;4.23;;
22359;SDS011;11347;52.030;4.690;2023-07-13T00:26:27;24.50;;;3.93;;
22359;SDS011;11347;52.030;4.690;2023-07-13T00:28:54;24.90;;;4.00;;
22359;SDS011;11347;52.030;4.690;2023-07-13T00:31:19;24.10;;;4.10;;
22359;SDS011;11347;52.030;4.690;2023-07-13T00:33:45;23.63;;;3.63;;
22359;SDS011;11347;52.030;4.690;2023-07-13T00:36:10;25.77;;;3.93;;
22359;SDS011;11347;52.030;4.690;2023-07-13T00:38:36;23.20;;;3.43;;
22359;SDS011;11347;52.030;4.690;2023-07-13T00:41:02;23.13;;;3.63;;
22359;SDS011;11347;52.030;4.690;2023-07-13T00:43:29;25.50;;;3.47;;
22359;SDS011;11347;52.030;4.690;2023-07-13T00:48:21;19.10;;;3.30;;
22359;SDS011;11347;52.030;4.690;2023-07-13T00:50:52;22.73;;;3.37;;
22359;SDS011;11347;52.030;4.690;2023-07-13T00:53:20;21.93;;;3.77;;
22359;SDS011;11347;52.030;4.690;2023-07-13T00:55:50;21.10;;;3.80;;
22359;SDS011;11347;52.030;4.690;2023-07-13T00:58:16;18.97;;;2.93;;
22359;SDS011;11347;52.030;4.690;2023-07-13T01:00:42;21.23;;;3.07;;
22359;SDS011;11347;52.030;4.690;2023-07-13T01:03:08;19.40;;;3.00;;
22359;SDS011;11347;52.030;4.690;2023-07-13T01:05:34;24.13;;;3.83;;
22359;SDS011;11347;52.030;4.690;2023-07-13T01:08:02;18.27;;;3.13;;
22359;SDS011;11347;52.030;4.690;2023-07-13T01:10:30;17.57;;;3.10;;
22359;SDS011;11347;52.030;4.690;2023-07-13T01:13:03;21.17;;;3.30;;
22359;SDS011;11347;52.030;4.690;2023-07-13T01:15:39;22.87;;;3.13;;
22359;SDS011;11347;52.030;4.690;2023-07-13T01:18:05;17.50;;;3.00;;
22359;SDS011;11347;52.030;4.690;2023-07-13T01:20:34;17.53;;;3.07;;
22359;SDS011;11347;52.030;4.690;2023-07-13T01:23:01;21.83;;;3.23;;
22359;SDS011;11347;52.030;4.690;2023-07-13T01:25:34;13.63;;;2.97;;
22359;SDS011;11347;52.030;4.690;2023-07-13T01:28:01;22.90;;;3.37;;
22359;SDS011;11347;52.030;4.690;2023-07-13T01:30:28;19.67;;;3.20;;
22359;SDS011;11347;52.030;4.690;2023-07-13T01:32:54;18.92;;;3.50;;
22359;SDS011;11347;52.030;4.690;2023-07-13T01:35:19;14.83;;;2.40;;
22359;SDS011;11347;52.030;4.690;2023-07-13T01:37:45;17.67;;;3.10;;
22359;SDS011;11347;52.030;4.690;2023-07-13T01:40:10;21.47;;;3.30;;
22359;SDS011;11347;52.030;4.690;2023-07-13T01:42:37;22.37;;;3.00;;
22359;SDS011;11347;52.030;4.690;2023-07-13T01:45:03;13.60;;;2.80;;
22359;SDS011;11347;52.030;4.690;2023-07-13T01:47:29;17.45;;;3.20;;
22359;SDS011;11347;52.030;4.690;2023-07-13T01:49:56;20.45;;;3.60;;
22359;SDS011;11347;52.030;4.690;2023-07-13T01:52:21;19.20;;;2.80;;
22359;SDS011;11347;52.030;4.690;2023-07-13T01:54:47;14.63;;;2.43;;
22359;SDS011;11347;52.030;4.690;2023-07-13T01:57:13;22.13;;;3.23;;
22359;SDS011;11347;52.030;4.690;2023-07-13T01:59:38;17.93;;;3.07;;
22359;SDS011;11347;52.030;4.690;2023-07-13T02:02:04;20.07;;;2.70;;
22359;SDS011;11347;52.030;4.690;2023-07-13T02:04:30;12.73;;;2.60;;
22359;SDS011;11347;52.030;4.690;2023-07-13T02:06:55;11.07;;;2.20;;
22359;SDS011;11347;52.030;4.690;2023-07-13T02:09:21;9.80;;;2.17;;
22359;SDS011;11347;52.030;4.690;2023-07-13T02:11:47;11.43;;;1.77;;
22359;SDS011;11347;52.030;4.690;2023-07-13T02:14:13;8.50;;;1.50;;
22359;SDS011;11347;52.030;4.690;2023-07-13T02:16:40;11.00;;;1.80;;
22359;SDS011;11347;52.030;4.690;2023-07-13T02:19:06;9.30;;;1.90;;
22359;SDS011;11347;52.030;4.690;2023-07-13T02:21:31;8.87;;;1.80;;
22359;SDS011;11347;52.030;4.690;2023-07-13T02:23:57;13.90;;;2.03;;
22359;SDS011;11347;52.030;4.690;2023-07-13T02:26:22;10.20;;;1.53;;
22359;SDS011;11347;52.030;4.690;2023-07-13T02:28:48;9.60;;;1.83;;
22359;SDS011;11347;52.030;4.690;2023-07-13T02:31:14;7.97;;;1.80;;
22359;SDS011;11347;52.030;4.690;2023-07-13T02:33:40;12.80;;;1.50;;
22359;SDS011;11347;52.030;4.690;2023-07-13T02:36:07;6.23;;;1.40;;
22359;SDS011;11347;52.030;4.690;2023-07-13T02:38:33;6.83;;;1.47;;
22359;SDS011;11347;52.030;4.690;2023-07-13T02:40:59;6.37;;;1.60;;
22359;SDS011;11347;52.030;4.690;2023-07-13T02:43:26;8.63;;;1.40;;
22359;SDS011;11347;52.030;4.690;2023-07-13T02:45:52;5.47;;;1.20;;
22359;SDS011;11347;52.030;4.690;2023-07-13T02:48:17;7.67;;;1.60;;
22359;SDS011;11347;52.030;4.690;2023-07-13T02:50:43;6.73;;;1.50;;
22359;SDS011;11347;52.030;4.690;2023-07-13T02:53:10;7.50;;;1.40;;
22359;SDS011;11347;52.030;4.690;2023-07-13T02:55:35;7.93;;;1.60;;
22359;SDS011;11347;52.030;4.690;2023-07-13T02:58:01;10.80;;;1.73;;
22359;SDS011;11347;52.030;4.690;2023-07-13T03:00:27;7.30;;;1.60;;
22359;SDS011;11347;52.030;4.690;2023-07-13T03:02:52;14.73;;;1.93;;
22359;SDS011;11347;52.030;4.690;2023-07-13T03:05:22;15.53;;;2.00;;
22359;SDS011;11347;52.030;4.690;2023-07-13T03:07:47;18.03;;;2.50;;
22359;SDS011;11347;52.030;4.690;2023-07-13T03:10:13;14.63;;;2.20;;
22359;SDS011;11347;52.030;4.690;2023-07-13T03:12:39;10.10;;;1.97;;
22359;SDS011;11347;52.030;4.690;2023-07-13T03:15:04;13.93;;;2.40;;
22359;SDS011;11347;52.030;4.690;2023-07-13T03:17:30;10.93;;;2.30;;
22359;SDS011;11347;52.030;4.690;2023-07-13T03:19:56;16.70;;;2.60;;
22359;SDS011;11347;52.030;4.690;2023-07-13T03:22:22;12.53;;;2.50;;
22359;SDS011;11347;52.030;4.690;2023-07-13T03:24:47;17.90;;;2.83;;
22359;SDS011;11347;52.030;4.690;2023-07-13T03:27:13;15.00;;;2.63;;
22359;SDS011;11347;52.030;4.690;2023-07-13T03:29:39;15.87;;;3.00;;
22359;SDS011;11347;52.030;4.690;2023-07-13T03:32:05;15.10;;;2.73;;
22359;SDS011;11347;52.030;4.690;2023-07-13T03:34:31;20.03;;;3.27;;
22359;SDS011;11347;52.030;4.690;2023-07-13T03:36:57;16.87;;;2.70;;
22359;SDS011;11347;52.030;4.690;2023-07-13T03:39:23;12.87;;;2.60;;
22359;SDS011;11347;52.030;4.690;2023-07-13T03:41:48;13.30;;;2.93;;
22359;SDS011;11347;52.030;4.690;2023-07-13T03:44:15;15.20;;;2.83;;
22359;SDS011;11347;52.030;4.690;2023-07-13T03:46:42;16.83;;;3.00;;
22359;SDS011;11347;52.030;4.690;2023-07-13T03:49:07;16.63;;;3.03;;
22359;SDS011;11347;52.030;4.690;2023-07-13T03:51:33;16.30;;;3.10;;
22359;SDS011;11347;52.030;4.690;2023-07-13T03:53:59;22.10;;;3.87;;
22359;SDS011;11347;52.030;4.690;2023-07-13T03:56:24;18.90;;;3.20;;
22359;SDS011;11347;52.030;4.690;2023-07-13T03:58:50;20.00;;;3.23;;
22359;SDS011;11347;52.030;4.690;2023-07-13T04:01:16;23.88;;;4.00;;
22359;SDS011;11347;52.030;4.690;2023-07-13T04:03:43;24.23;;;4.22;;
22359;SDS011;11347;52.030;4.690;2023-07-13T04:06:12;19.80;;;3.83;;
22359;SDS011;11347;52.030;4.690;2023-07-13T04:08:46;24.25;;;3.92;;
22359;SDS011;11347;52.030;4.690;2023-07-13T04:11:14;22.83;;;4.28;;
22359;SDS011;11347;52.030;4.690;2023-07-13T04:13:39;20.43;;;3.60;;
22359;SDS011;11347;52.030;4.690;2023-07-13T04:16:05;21.92;;;3.67;;
22359;SDS011;11347;52.030;4.690;2023-07-13T04:18:31;23.20;;;3.75;;
22359;SDS011;11347;52.030;4.690;2023-07-13T04:20:56;23.93;;;3.80;;
22359;SDS011;11347;52.030;4.690;2023-07-13T04:23:22;18.33;;;3.43;;
22359;SDS011;11347;52.030;4.690;2023-07-13T04:25:48;21.67;;;4.00;;
22359;SDS011;11347;52.030;4.690;2023-07-13T04:28:17;20.17;;;3.50;;
22359;SDS011;11347;52.030;4.690;2023-07-13T04:30:43;22.77;;;3.90;;
22359;SDS011;11347;52.030;4.690;2023-07-13T04:33:09;19.58;;;3.78;;
22359;SDS011;11347;52.030;4.690;2023-07-13T04:35:35;18.50;;;3.65;;
22359;SDS011;11347;52.030;4.690;2023-07-13T04:38:00;20.13;;;3.87;;
22359;SDS011;11347;52.030;4.690;2023-07-13T04:40:27;24.65;;;4.35;;
22359;SDS011;11347;52.030;4.690;2023-07-13T04:42:53;22.33;;;4.13;;
22359;SDS011;11347;52.030;4.690;2023-07-13T04:45:19;30.10;;;4.55;;
22359;SDS011;11347;52.030;4.690;2023-07-13T04:47:45;26.17;;;4.63;;
22359;SDS011;11347;52.030;4.690;2023-07-13T04:50:12;25.17;;;4.53;;
22359;SDS011;11347;52.030;4.690;2023-07-13T04:52:43;25.95;;;4.78;;
22359;SDS011;11347;52.030;4.690;2023-07-13T04:55:09;25.10;;;4.10;;
22359;SDS011;11347;52.030;4.690;2023-07-13T04:57:35;25.93;;;4.97;;
22359;SDS011;11347;52.030;4.690;2023-07-13T05:00:01;22.40;;;4.15;;
22359;SDS011;11347;52.030;4.690;2023-07-13T05:02:31;24.15;;;4.40;;
22359;SDS011;11347;52.030;4.690;2023-07-13T05:04:57;26.35;;;4.68;;
22359;SDS011;11347;52.030;4.690;2023-07-13T05:07:23;24.10;;;4.50;;
22359;SDS011;11347;52.030;4.690;2023-07-13T05:09:48;24.03;;;4.27;;
22359;SDS011;11347;52.030;4.690;2023-07-13T05:12:14;29.83;;;4.70;;
22359;SDS011;11347;52.030;4.690;2023-07-13T05:14:39;24.90;;;5.18;;
22359;SDS011;11347;52.030;4.690;2023-07-13T05:17:05;16.63;;;3.80;;
22359;SDS011;11347;52.030;4.690;2023-07-13T05:19:31;18.83;;;4.27;;
22359;SDS011;11347;52.030;4.690;2023-07-13T05:21:56;22.13;;;4.30;;
22359;SDS011;11347;52.030;4.690;2023-07-13T05:24:22;22.27;;;4.30;;
22359;SDS011;11347;52.030;4.690;2023-07-13T05:26:47;23.42;;;4.28;;
22359;SDS011;11347;52.030;4.690;2023-07-13T05:29:13;26.65;;;4.53;;
22359;SDS011;11347;52.030;4.690;2023-07-13T05:31:38;25.57;;;4.37;;
22359;SDS011;11347;52.030;4.690;2023-07-13T05:34:04;22.97;;;4.33;;
22359;SDS011;11347;52.030;4.690;2023-07-13T05:36:30;23.52;;;4.10;;
22359;SDS011;11347;52.030;4.690;2023-07-13T05:38:56;21.00;;;4.32;;
22359;SDS011;11347;52.030;4.690;2023-07-13T05:41:21;24.60;;;4.43;;
22359;SDS011;11347;52.030;4.690;2023-07-13T05:43:46;18.10;;;3.90;;
22359;SDS011;11347;52.030;4.690;2023-07-13T05:46:12;21.90;;;4.20;;
22359;SDS011;11347;52.030;4.690;2023-07-13T05:48:38;20.50;;;4.20;;
22359;SDS011;11347;52.030;4.690;2023-07-13T05:51:03;22.75;;;4.07;;
22359;SDS011;11347;52.030;4.690;2023-07-13T05:53:29;18.75;;;3.97;;
22359;SDS011;11347;52.030;4.690;2023-07-13T05:55:54;22.13;;;4.20;;
22359;SDS011;11347;52.030;4.690;2023-07-13T05:58:20;18.27;;;3.97;;
22359;SDS011;11347;52.030;4.690;2023-07-13T06:00:46;19.63;;;4.20;;
22359;SDS011;11347;52.030;4.690;2023-07-13T06:03:13;22.60;;;4.00;;
22359;SDS011;11347;52.030;4.690;2023-07-13T06:05:41;27.25;;;4.30;;
22359;SDS011;11347;52.030;4.690;2023-07-13T06:08:07;20.23;;;4.20;;
22359;SDS011;11347;52.030;4.690;2023-07-13T06:10:33;23.85;;;4.20;;
22359;SDS011;11347;52.030;4.690;2023-07-13T06:13:01;20.60;;;4.07;;
22359;SDS011;11347;52.030;4.690;2023-07-13T06:15:28;22.45;;;4.05;;
22359;SDS011;11347;52.030;4.690;2023-07-13T06:17:53;18.77;;;4.17;;
22359;SDS011;11347;52.030;4.690;2023-07-13T06:20:19;26.70;;;5.18;;
22359;SDS011;11347;52.030;4.690;2023-07-13T06:22:44;27.08;;;5.65;;
22359;SDS011;11347;52.030;4.690;2023-07-13T06:25:10;21.00;;;4.85;;
22359;SDS011;11347;52.030;4.690;2023-07-13T06:27:36;17.98;;;4.32;;
22359;SDS011;11347;52.030;4.690;2023-07-13T06:30:01;16.23;;;4.07;;
